Terminal Aerodrome Forecast
Issued by NWS

Home | Current Version | Previous Version | Graphics & Text | Print | Product List | Glossary On
Versions: 1 2 3 4 5 6 7 8 9 10 11 12 13 14 15 16 17 18 19 20 21 22 23
000
FTUS43 KBIS 230146 AAA
TAFJMS
TAF AMD
KJMS 230146Z 2302/2324 35011G19KT P6SM OVC015
     FM230500 35008KT 6SM BR OVC020
     FM231100 04009KT 2SM BR BKN008
     FM231500 04009KT 5SM BR BKN015
     FM231900 05012KT P6SM BKN020=

USA.gov is the U.S. government's official web portal to all federal, state and local government web resources and services.